ITY3H LIRN-LICR
Flight info
| Callsign | ITY3H |
|---|---|
| Flight time | 0h 58m |
| Altitude | 21000 |
| Route | AGNIS DCT VACCE/N0335F190 Q58 FOSQA |
| Aircraft | A319/M-SDE3FGHIRWY/LB1 |
Departure
| Time | 2026-05-05 18:36 |
|---|---|
| Airport | Naples International Airport (LIRN) |
Arrival
| Time | 2026-05-05 19:35 |
|---|---|
| Airport | Reggio Calabria Airport (LICR) |
| Time | Latitude | Longitude | Altitude | Speed | Heading |
|---|---|---|---|---|---|
| 2026-05-05 18:04 | 40.88143 | 14.28613 | 290 ft | 0 kts | 330° |
| 2026-05-05 18:24 | 40.88137 | 14.28618 | 293 ft | 4 kts | 330° |
| 2026-05-05 18:24 | 40.88113 | 14.28637 | 295 ft | 4 kts | 328° |
| 2026-05-05 18:25 | 40.88095 | 14.28651 | 293 ft | 4 kts | 344° |
| 2026-05-05 18:25 | 40.88080 | 14.28653 | 292 ft | 4 kts | 23° |
| 2026-05-05 18:25 | 40.88056 | 14.28624 | 297 ft | 4 kts | 53° |
| 2026-05-05 18:25 | 40.88052 | 14.28617 | 297 ft | 0 kts | 53° |
| 2026-05-05 18:29 | 40.88075 | 14.28656 | 292 ft | 11 kts | 52° |
| 2026-05-05 18:29 | 40.88144 | 14.28776 | 285 ft | 22 kts | 53° |
| 2026-05-05 18:29 | 40.88236 | 14.28934 | 279 ft | 15 kts | 53° |
| 2026-05-05 18:30 | 40.88309 | 14.29061 | 274 ft | 20 kts | 52° |
| 2026-05-05 18:30 | 40.88401 | 14.29221 | 268 ft | 24 kts | 52° |
| 2026-05-05 18:30 | 40.88511 | 14.29410 | 260 ft | 28 kts | 53° |
| 2026-05-05 18:30 | 40.88600 | 14.29567 | 254 ft | 21 kts | 53° |
| 2026-05-05 18:31 | 40.88696 | 14.29733 | 247 ft | 25 kts | 53° |
| 2026-05-05 18:31 | 40.88782 | 14.29882 | 241 ft | 20 kts | 52° |
| 2026-05-05 18:31 | 40.88859 | 14.30015 | 239 ft | 17 kts | 53° |
| 2026-05-05 18:31 | 40.88940 | 14.30155 | 230 ft | 21 kts | 53° |
| 2026-05-05 18:32 | 40.89038 | 14.30328 | 223 ft | 26 kts | 52° |
| 2026-05-05 18:32 | 40.89130 | 14.30451 | 222 ft | 12 kts | 20° |
| 2026-05-05 18:32 | 40.89135 | 14.30453 | 220 ft | 0 kts | 14° |
| 2026-05-05 18:34 | 40.89137 | 14.30453 | 218 ft | 2 kts | 13° |
| 2026-05-05 18:34 | 40.89168 | 14.30451 | 223 ft | 8 kts | 348° |
| 2026-05-05 18:34 | 40.89205 | 14.30374 | 217 ft | 12 kts | 272° |
| 2026-05-05 18:34 | 40.89189 | 14.30310 | 225 ft | 0 kts | 237° |
| 2026-05-05 18:35 | 40.89069 | 14.30060 | 231 ft | 80 kts | 238° |
| 2026-05-05 18:36 | 40.88609 | 14.29087 | 309 ft | 160 kts | 238° |
| 2026-05-05 18:36 | 40.87989 | 14.27779 | 1020 ft | 172 kts | 238° |
| 2026-05-05 18:36 | 40.87192 | 14.26609 | 1923 ft | 176 kts | 209° |
| 2026-05-05 18:36 | 40.85954 | 14.26433 | 2460 ft | 188 kts | 169° |
| 2026-05-05 18:37 | 40.84668 | 14.26744 | 3283 ft | 188 kts | 173° |
| 2026-05-05 18:37 | 40.83356 | 14.26957 | 4069 ft | 191 kts | 175° |
| 2026-05-05 18:37 | 40.82026 | 14.27144 | 4918 ft | 195 kts | 176° |
| 2026-05-05 18:37 | 40.80658 | 14.27327 | 5729 ft | 199 kts | 177° |
| 2026-05-05 18:38 | 40.79268 | 14.27513 | 6532 ft | 203 kts | 178° |
| 2026-05-05 18:38 | 40.77847 | 14.27703 | 7306 ft | 207 kts | 178° |
| 2026-05-05 18:38 | 40.76403 | 14.27897 | 8108 ft | 210 kts | 178° |
| 2026-05-05 18:38 | 40.74943 | 14.28092 | 8930 ft | 212 kts | 178° |
| 2026-05-05 18:39 | 40.73463 | 14.28290 | 9759 ft | 215 kts | 178° |
| 2026-05-05 18:39 | 40.71973 | 14.28489 | 10520 ft | 218 kts | 178° |
| 2026-05-05 18:39 | 40.70453 | 14.28817 | 11198 ft | 230 kts | 168° |
| 2026-05-05 18:39 | 40.68831 | 14.29415 | 11590 ft | 254 kts | 167° |
| 2026-05-05 18:40 | 40.67052 | 14.30093 | 12021 ft | 279 kts | 166° |
| 2026-05-05 18:40 | 40.65110 | 14.30841 | 12431 ft | 303 kts | 166° |
| 2026-05-05 18:40 | 40.63008 | 14.31650 | 12868 ft | 325 kts | 166° |
| 2026-05-05 18:40 | 40.60808 | 14.32500 | 13631 ft | 333 kts | 165° |
| 2026-05-05 18:41 | 40.58573 | 14.33368 | 14431 ft | 338 kts | 164° |
| 2026-05-05 18:41 | 40.56345 | 14.34466 | 15217 ft | 344 kts | 160° |
| 2026-05-05 18:41 | 40.54114 | 14.35654 | 16005 ft | 348 kts | 160° |
| 2026-05-05 18:41 | 40.51862 | 14.36885 | 16773 ft | 353 kts | 160° |
| 2026-05-05 18:42 | 40.49583 | 14.38143 | 17533 ft | 358 kts | 160° |
| 2026-05-05 18:42 | 40.47274 | 14.39421 | 18303 ft | 362 kts | 160° |
| 2026-05-05 18:42 | 40.44934 | 14.40708 | 18968 ft | 366 kts | 161° |
| 2026-05-05 18:42 | 40.42576 | 14.41997 | 19622 ft | 370 kts | 161° |
| 2026-05-05 18:43 | 40.40209 | 14.43281 | 20271 ft | 374 kts | 161° |
| 2026-05-05 18:43 | 40.37785 | 14.44587 | 20844 ft | 379 kts | 161° |
| 2026-05-05 18:43 | 40.35340 | 14.45904 | 21022 ft | 380 kts | 161° |
| 2026-05-05 18:43 | 40.32929 | 14.47207 | 21076 ft | 367 kts | 161° |
| 2026-05-05 18:44 | 40.30629 | 14.48455 | 21075 ft | 350 kts | 161° |
| 2026-05-05 18:44 | 40.28426 | 14.49647 | 21077 ft | 336 kts | 162° |
| 2026-05-05 18:44 | 40.26288 | 14.50798 | 21080 ft | 331 kts | 162° |
| 2026-05-05 18:44 | 40.24163 | 14.51938 | 21078 ft | 329 kts | 162° |
| 2026-05-05 18:45 | 40.22041 | 14.53076 | 21080 ft | 329 kts | 162° |
| 2026-05-05 18:45 | 40.19928 | 14.54204 | 21072 ft | 329 kts | 162° |
| 2026-05-05 18:45 | 40.17808 | 14.55334 | 21079 ft | 329 kts | 162° |
| 2026-05-05 18:45 | 40.15691 | 14.56461 | 21076 ft | 329 kts | 162° |
| 2026-05-05 18:46 | 40.13574 | 14.57590 | 21075 ft | 329 kts | 162° |
| 2026-05-05 18:46 | 40.11455 | 14.58724 | 21077 ft | 329 kts | 162° |
| 2026-05-05 18:46 | 40.09342 | 14.59859 | 21075 ft | 329 kts | 162° |
| 2026-05-05 18:46 | 40.07221 | 14.60996 | 21076 ft | 329 kts | 162° |
| 2026-05-05 18:47 | 40.05101 | 14.62129 | 21081 ft | 329 kts | 162° |
| 2026-05-05 18:47 | 40.02981 | 14.63259 | 21082 ft | 329 kts | 162° |
| 2026-05-05 18:47 | 40.00866 | 14.64387 | 21081 ft | 329 kts | 162° |
| 2026-05-05 18:47 | 39.98753 | 14.65513 | 21081 ft | 329 kts | 162° |
| 2026-05-05 18:48 | 39.96635 | 14.66641 | 21065 ft | 329 kts | 162° |
| 2026-05-05 18:48 | 39.94518 | 14.67766 | 21063 ft | 329 kts | 162° |
| 2026-05-05 18:48 | 39.92395 | 14.68896 | 21064 ft | 329 kts | 162° |
| 2026-05-05 18:48 | 39.90274 | 14.70023 | 21064 ft | 330 kts | 162° |
| 2026-05-05 18:49 | 39.88169 | 14.71145 | 21067 ft | 330 kts | 162° |
| 2026-05-05 18:49 | 39.86045 | 14.72274 | 21070 ft | 330 kts | 162° |
| 2026-05-05 18:49 | 39.83914 | 14.73404 | 21072 ft | 330 kts | 162° |
| 2026-05-05 18:49 | 39.81782 | 14.74532 | 21075 ft | 330 kts | 162° |
| 2026-05-05 18:50 | 39.79612 | 14.75438 | 21079 ft | 326 kts | 172° |
| 2026-05-05 18:50 | 39.77428 | 14.76104 | 21081 ft | 326 kts | 171° |
| 2026-05-05 18:50 | 39.75191 | 14.76795 | 21083 ft | 326 kts | 171° |
| 2026-05-05 18:50 | 39.73013 | 14.77471 | 21084 ft | 326 kts | 171° |
| 2026-05-05 18:51 | 39.70773 | 14.78167 | 21081 ft | 326 kts | 171° |
| 2026-05-05 18:51 | 39.68595 | 14.78845 | 21080 ft | 326 kts | 171° |
| 2026-05-05 18:51 | 39.66389 | 14.79531 | 21081 ft | 326 kts | 171° |
| 2026-05-05 18:51 | 39.64182 | 14.80217 | 21082 ft | 326 kts | 171° |
| 2026-05-05 18:52 | 39.61970 | 14.80903 | 21084 ft | 326 kts | 171° |
| 2026-05-05 18:52 | 39.59767 | 14.81584 | 21084 ft | 326 kts | 171° |
| 2026-05-05 18:52 | 39.57557 | 14.82266 | 21084 ft | 326 kts | 171° |
| 2026-05-05 18:52 | 39.55348 | 14.82947 | 21084 ft | 326 kts | 171° |
| 2026-05-05 18:53 | 39.53142 | 14.83627 | 21084 ft | 326 kts | 171° |
| 2026-05-05 18:53 | 39.50937 | 14.84307 | 21072 ft | 326 kts | 171° |
| 2026-05-05 18:53 | 39.48727 | 14.84989 | 21074 ft | 326 kts | 171° |
| 2026-05-05 18:53 | 39.46514 | 14.85673 | 21076 ft | 326 kts | 171° |
| 2026-05-05 18:54 | 39.44304 | 14.86355 | 21077 ft | 326 kts | 171° |
| 2026-05-05 18:54 | 39.42096 | 14.87032 | 21078 ft | 326 kts | 172° |
| 2026-05-05 18:54 | 39.39883 | 14.87708 | 21079 ft | 326 kts | 172° |
| 2026-05-05 18:54 | 39.37670 | 14.88384 | 21079 ft | 326 kts | 172° |
| 2026-05-05 18:55 | 39.35464 | 14.89060 | 21079 ft | 326 kts | 171° |
| 2026-05-05 18:55 | 39.33255 | 14.89739 | 21077 ft | 326 kts | 171° |
| 2026-05-05 18:55 | 39.31046 | 14.90417 | 21076 ft | 326 kts | 171° |
| 2026-05-05 18:55 | 39.28839 | 14.91094 | 21069 ft | 326 kts | 172° |
| 2026-05-05 18:56 | 39.26635 | 14.91770 | 21071 ft | 326 kts | 171° |
| 2026-05-05 18:56 | 39.24450 | 14.92442 | 21074 ft | 326 kts | 171° |
| 2026-05-05 18:56 | 39.22219 | 14.93127 | 21074 ft | 326 kts | 171° |
| 2026-05-05 18:56 | 39.20009 | 14.93802 | 21076 ft | 326 kts | 171° |
| 2026-05-05 18:57 | 39.17805 | 14.94474 | 21075 ft | 325 kts | 171° |
| 2026-05-05 18:57 | 39.15601 | 14.95146 | 21077 ft | 325 kts | 171° |
| 2026-05-05 18:57 | 39.13428 | 14.95808 | 21079 ft | 325 kts | 171° |
| 2026-05-05 18:57 | 39.11235 | 14.96474 | 21078 ft | 325 kts | 171° |
| 2026-05-05 18:58 | 39.09093 | 14.97125 | 21078 ft | 325 kts | 171° |
| 2026-05-05 18:58 | 39.06923 | 14.97783 | 21078 ft | 325 kts | 172° |
| 2026-05-05 18:58 | 39.04723 | 14.98449 | 21071 ft | 324 kts | 171° |
| 2026-05-05 18:58 | 39.03239 | 14.98901 | 21076 ft | 324 kts | 171° |
| 2026-05-05 18:59 | 39.01048 | 14.99572 | 21074 ft | 324 kts | 171° |
| 2026-05-05 18:59 | 38.98850 | 15.00244 | 21076 ft | 324 kts | 171° |
| 2026-05-05 18:59 | 38.96659 | 15.00909 | 21074 ft | 323 kts | 172° |
| 2026-05-05 18:59 | 38.94471 | 15.01568 | 21076 ft | 323 kts | 172° |
| 2026-05-05 19:00 | 38.92264 | 15.02232 | 20645 ft | 331 kts | 171° |
| 2026-05-05 19:00 | 38.89990 | 15.02914 | 19996 ft | 338 kts | 171° |
| 2026-05-05 19:00 | 38.87701 | 15.03605 | 19556 ft | 338 kts | 171° |
| 2026-05-05 19:00 | 38.85445 | 15.04292 | 19175 ft | 336 kts | 171° |
| 2026-05-05 19:01 | 38.83178 | 15.04981 | 18814 ft | 333 kts | 171° |
| 2026-05-05 19:01 | 38.80930 | 15.05659 | 18433 ft | 331 kts | 171° |
| 2026-05-05 19:01 | 38.78690 | 15.06332 | 18033 ft | 330 kts | 171° |
| 2026-05-05 19:01 | 38.76462 | 15.07000 | 17615 ft | 327 kts | 171° |
| 2026-05-05 19:02 | 38.74250 | 15.07665 | 17229 ft | 325 kts | 171° |
| 2026-05-05 19:02 | 38.72058 | 15.08364 | 16844 ft | 325 kts | 166° |
| 2026-05-05 19:02 | 38.69973 | 15.09521 | 16475 ft | 328 kts | 154° |
| 2026-05-05 19:02 | 38.68109 | 15.11218 | 16108 ft | 331 kts | 143° |
| 2026-05-05 19:03 | 38.66359 | 15.13118 | 15732 ft | 330 kts | 143° |
| 2026-05-05 19:03 | 38.64607 | 15.15006 | 15381 ft | 328 kts | 144° |
| 2026-05-05 19:03 | 38.62865 | 15.16878 | 15038 ft | 327 kts | 144° |
| 2026-05-05 19:03 | 38.61127 | 15.18747 | 14669 ft | 326 kts | 144° |
| 2026-05-05 19:04 | 38.59390 | 15.20610 | 14293 ft | 326 kts | 144° |
| 2026-05-05 19:04 | 38.57652 | 15.22470 | 13918 ft | 326 kts | 144° |
| 2026-05-05 19:04 | 38.55913 | 15.24324 | 13511 ft | 325 kts | 144° |
| 2026-05-05 19:04 | 38.54180 | 15.26174 | 13088 ft | 324 kts | 144° |
| 2026-05-05 19:05 | 38.52455 | 15.28019 | 12672 ft | 323 kts | 144° |
| 2026-05-05 19:05 | 38.50687 | 15.29757 | 12255 ft | 318 kts | 152° |
| 2026-05-05 19:05 | 38.48758 | 15.31106 | 11847 ft | 315 kts | 156° |
| 2026-05-05 19:05 | 38.46846 | 15.32405 | 11649 ft | 307 kts | 155° |
| 2026-05-05 19:06 | 38.44974 | 15.33682 | 11310 ft | 305 kts | 155° |
| 2026-05-05 19:06 | 38.43107 | 15.34957 | 10951 ft | 303 kts | 155° |
| 2026-05-05 19:06 | 38.41244 | 15.36225 | 10574 ft | 302 kts | 155° |
| 2026-05-05 19:06 | 38.39396 | 15.37482 | 10213 ft | 301 kts | 155° |
| 2026-05-05 19:07 | 38.37553 | 15.38737 | 9836 ft | 299 kts | 155° |
| 2026-05-05 19:07 | 38.35781 | 15.39944 | 9446 ft | 298 kts | 155° |
| 2026-05-05 19:07 | 38.33960 | 15.41181 | 9049 ft | 296 kts | 154° |
| 2026-05-05 19:07 | 38.32149 | 15.42411 | 8640 ft | 294 kts | 154° |
| 2026-05-05 19:08 | 38.30353 | 15.43630 | 8275 ft | 290 kts | 154° |
| 2026-05-05 19:08 | 38.28576 | 15.44834 | 7878 ft | 288 kts | 153° |
| 2026-05-05 19:08 | 38.26828 | 15.46011 | 7486 ft | 286 kts | 153° |
| 2026-05-05 19:08 | 38.25074 | 15.47184 | 7092 ft | 284 kts | 153° |
| 2026-05-05 19:09 | 38.23354 | 15.48328 | 6932 ft | 273 kts | 153° |
| 2026-05-05 19:09 | 38.21709 | 15.49424 | 6814 ft | 261 kts | 153° |
| 2026-05-05 19:09 | 38.20134 | 15.50473 | 6694 ft | 249 kts | 153° |
| 2026-05-05 19:09 | 38.18633 | 15.51474 | 6576 ft | 237 kts | 153° |
| 2026-05-05 19:10 | 38.17201 | 15.52426 | 6452 ft | 227 kts | 153° |
| 2026-05-05 19:10 | 38.15826 | 15.53338 | 6333 ft | 219 kts | 153° |
| 2026-05-05 19:10 | 38.14441 | 15.54029 | 6205 ft | 210 kts | 168° |
| 2026-05-05 19:10 | 38.13037 | 15.54163 | 6049 ft | 203 kts | 186° |
| 2026-05-05 19:11 | 38.11678 | 15.53779 | 5826 ft | 199 kts | 202° |
| 2026-05-05 19:11 | 38.10391 | 15.53159 | 5615 ft | 196 kts | 202° |
| 2026-05-05 19:11 | 38.09112 | 15.52558 | 5286 ft | 196 kts | 202° |
| 2026-05-05 19:11 | 38.07815 | 15.51953 | 4986 ft | 195 kts | 200° |
| 2026-05-05 19:12 | 38.06553 | 15.51360 | 4692 ft | 193 kts | 200° |
| 2026-05-05 19:12 | 38.05320 | 15.50778 | 4509 ft | 184 kts | 200° |
| 2026-05-05 19:12 | 38.04128 | 15.50367 | 4214 ft | 179 kts | 182° |
| 2026-05-05 19:12 | 38.02925 | 15.50749 | 3862 ft | 178 kts | 150° |
| 2026-05-05 19:13 | 38.02089 | 15.51841 | 3536 ft | 178 kts | 122° |
| 2026-05-05 19:13 | 38.01483 | 15.53210 | 3199 ft | 177 kts | 120° |
| 2026-05-05 19:13 | 38.00879 | 15.54565 | 2936 ft | 175 kts | 120° |
| 2026-05-05 19:13 | 38.00308 | 15.55891 | 2904 ft | 170 kts | 114° |
| 2026-05-05 19:14 | 38.00112 | 15.57352 | 2907 ft | 169 kts | 88° |
| 2026-05-05 19:14 | 38.00384 | 15.58801 | 2910 ft | 170 kts | 73° |
| 2026-05-05 19:14 | 38.00730 | 15.60196 | 2879 ft | 160 kts | 74° |
| 2026-05-05 19:14 | 38.01108 | 15.61489 | 2745 ft | 153 kts | 65° |
| 2026-05-05 19:15 | 38.01602 | 15.62730 | 2317 ft | 164 kts | 65° |
| 2026-05-05 19:15 | 38.02100 | 15.64009 | 1953 ft | 156 kts | 63° |
| 2026-05-05 19:15 | 38.02598 | 15.65191 | 1693 ft | 149 kts | 62° |
| 2026-05-05 19:15 | 38.03270 | 15.66116 | 1451 ft | 144 kts | 25° |
| 2026-05-05 19:16 | 38.04258 | 15.66364 | 1031 ft | 150 kts | 6° |
| 2026-05-05 19:16 | 38.05317 | 15.66266 | 479 ft | 156 kts | 342° |
| 2026-05-05 19:16 | 38.06277 | 15.65712 | 153 ft | 145 kts | 331° |
| 2026-05-05 19:16 | 38.07097 | 15.65170 | 81 ft | 118 kts | 330° |
| 2026-05-05 19:17 | 38.07894 | 15.64703 | 535 ft | 131 kts | 333° |
| 2026-05-05 19:17 | 38.08793 | 15.64194 | 1225 ft | 152 kts | 334° |
| 2026-05-05 19:17 | 38.09823 | 15.63578 | 1894 ft | 175 kts | 333° |
| 2026-05-05 19:17 | 38.10884 | 15.62666 | 2485 ft | 196 kts | 309° |
| 2026-05-05 19:18 | 38.11565 | 15.61110 | 2588 ft | 204 kts | 293° |
| 2026-05-05 19:18 | 38.12139 | 15.59465 | 2600 ft | 204 kts | 292° |
| 2026-05-05 19:18 | 38.12702 | 15.57813 | 2607 ft | 203 kts | 292° |
| 2026-05-05 19:18 | 38.13148 | 15.56120 | 2602 ft | 202 kts | 271° |
| 2026-05-05 19:19 | 38.12709 | 15.54504 | 2583 ft | 195 kts | 226° |
| 2026-05-05 19:19 | 38.11557 | 15.53664 | 2341 ft | 192 kts | 198° |
| 2026-05-05 19:19 | 38.10291 | 15.53088 | 2307 ft | 192 kts | 198° |
| 2026-05-05 19:19 | 38.09034 | 15.52509 | 2307 ft | 193 kts | 199° |
| 2026-05-05 19:20 | 38.07770 | 15.51924 | 2299 ft | 194 kts | 199° |
| 2026-05-05 19:20 | 38.06491 | 15.51367 | 2301 ft | 195 kts | 193° |
| 2026-05-05 19:20 | 38.05159 | 15.51450 | 2310 ft | 192 kts | 162° |
| 2026-05-05 19:20 | 38.04046 | 15.52355 | 2313 ft | 190 kts | 140° |
| 2026-05-05 19:21 | 38.03068 | 15.53400 | 2315 ft | 189 kts | 140° |
| 2026-05-05 19:21 | 38.02064 | 15.54470 | 2318 ft | 188 kts | 141° |
| 2026-05-05 19:21 | 38.01071 | 15.55552 | 2285 ft | 187 kts | 136° |
| 2026-05-05 19:21 | 38.00417 | 15.56934 | 2025 ft | 180 kts | 108° |
| 2026-05-05 19:22 | 38.00335 | 15.58434 | 2006 ft | 165 kts | 83° |
| 2026-05-05 19:22 | 38.00644 | 15.59800 | 2018 ft | 160 kts | 72° |
| 2026-05-05 19:22 | 38.01000 | 15.61116 | 1826 ft | 153 kts | 71° |
| 2026-05-05 19:22 | 38.01378 | 15.62336 | 1630 ft | 146 kts | 68° |
| 2026-05-05 19:23 | 38.01949 | 15.63381 | 1276 ft | 145 kts | 44° |
| 2026-05-05 19:23 | 38.02790 | 15.64108 | 868 ft | 146 kts | 27° |
| 2026-05-05 19:23 | 38.03668 | 15.64672 | 644 ft | 136 kts | 28° |
| 2026-05-05 19:23 | 38.04444 | 15.65308 | 614 ft | 134 kts | 41° |
| 2026-05-05 19:24 | 38.05184 | 15.66004 | 591 ft | 139 kts | 7° |
| 2026-05-05 19:24 | 38.06130 | 15.65761 | 275 ft | 144 kts | 340° |
| 2026-05-05 19:24 | 38.07003 | 15.65221 | 66 ft | 127 kts | 334° |
| 2026-05-05 19:24 | 38.07781 | 15.64710 | 204 ft | 140 kts | 330° |
| 2026-05-05 19:25 | 38.08748 | 15.64134 | 699 ft | 173 kts | 338° |
| 2026-05-05 19:25 | 38.10126 | 15.63654 | 738 ft | 237 kts | 346° |
| 2026-05-05 19:25 | 38.11800 | 15.63179 | 1814 ft | 255 kts | 347° |
| 2026-05-05 19:25 | 38.13565 | 15.62642 | 2260 ft | 251 kts | 343° |
| 2026-05-05 19:26 | 38.14976 | 15.61623 | 2446 ft | 222 kts | 314° |
| 2026-05-05 19:26 | 38.15773 | 15.60014 | 2504 ft | 214 kts | 285° |
| 2026-05-05 19:26 | 38.15906 | 15.58211 | 2506 ft | 202 kts | 259° |
| 2026-05-05 19:26 | 38.15451 | 15.56561 | 2508 ft | 197 kts | 237° |
| 2026-05-05 19:27 | 38.14535 | 15.55287 | 2509 ft | 195 kts | 213° |
| 2026-05-05 19:27 | 38.13330 | 15.54551 | 2508 ft | 192 kts | 198° |
| 2026-05-05 19:27 | 38.12072 | 15.53967 | 2507 ft | 192 kts | 199° |
| 2026-05-05 19:27 | 38.10816 | 15.53379 | 2509 ft | 193 kts | 199° |
| 2026-05-05 19:28 | 38.09555 | 15.52787 | 2509 ft | 192 kts | 199° |
| 2026-05-05 19:28 | 38.08294 | 15.52194 | 2498 ft | 194 kts | 199° |
| 2026-05-05 19:28 | 38.07023 | 15.51596 | 2505 ft | 195 kts | 199° |
| 2026-05-05 19:28 | 38.05752 | 15.50999 | 2507 ft | 195 kts | 199° |
| 2026-05-05 19:29 | 38.04478 | 15.50402 | 2508 ft | 195 kts | 199° |
| 2026-05-05 19:29 | 38.03206 | 15.49803 | 2508 ft | 195 kts | 199° |
| 2026-05-05 19:29 | 38.01917 | 15.49288 | 2554 ft | 195 kts | 189° |
| 2026-05-05 19:29 | 38.00606 | 15.49280 | 2612 ft | 180 kts | 169° |
| 2026-05-05 19:30 | 37.99636 | 15.49983 | 2783 ft | 158 kts | 129° |
| 2026-05-05 19:30 | 37.99370 | 15.51288 | 2655 ft | 154 kts | 84° |
| 2026-05-05 19:30 | 37.99541 | 15.52590 | 2570 ft | 148 kts | 79° |
| 2026-05-05 19:30 | 37.99795 | 15.53832 | 2611 ft | 147 kts | 76° |
| 2026-05-05 19:31 | 38.00036 | 15.55098 | 2630 ft | 148 kts | 80° |
| 2026-05-05 19:31 | 38.00132 | 15.56390 | 2439 ft | 146 kts | 90° |
| 2026-05-05 19:31 | 38.00092 | 15.57672 | 2263 ft | 145 kts | 94° |
| 2026-05-05 19:31 | 38.00022 | 15.58948 | 1889 ft | 145 kts | 96° |
| 2026-05-05 19:32 | 38.00061 | 15.60191 | 1632 ft | 139 kts | 81° |
| 2026-05-05 19:32 | 38.00283 | 15.61368 | 1501 ft | 136 kts | 74° |
| 2026-05-05 19:32 | 38.00623 | 15.62488 | 1517 ft | 137 kts | 65° |
| 2026-05-05 19:32 | 38.01098 | 15.63530 | 1553 ft | 137 kts | 59° |
| 2026-05-05 19:33 | 38.01628 | 15.64535 | 1565 ft | 136 kts | 54° |
| 2026-05-05 19:33 | 38.02230 | 15.65450 | 1447 ft | 135 kts | 50° |
| 2026-05-05 19:33 | 38.02878 | 15.66314 | 1305 ft | 136 kts | 41° |
| 2026-05-05 19:33 | 38.03664 | 15.66959 | 1009 ft | 135 kts | 17° |
| 2026-05-05 19:34 | 38.04563 | 15.66754 | 690 ft | 134 kts | 336° |
| 2026-05-05 19:34 | 38.05397 | 15.66262 | 437 ft | 132 kts | 330° |
| 2026-05-05 19:34 | 38.06215 | 15.65743 | 207 ft | 131 kts | 330° |
| 2026-05-05 19:35 | 38.07392 | 15.64978 | 59 ft | 18 kts | 331° |
| 2026-05-05 19:35 | 38.07499 | 15.64891 | 63 ft | 19 kts | 316° |
| 2026-05-05 19:35 | 38.07523 | 15.64894 | 62 ft | 1 kts | 126° |
| 2026-05-05 19:35 | 38.07516 | 15.64896 | 61 ft | 1 kts | 157° |
| 2026-05-05 19:36 | 38.07506 | 15.64903 | 61 ft | 2 kts | 149° |
| 2026-05-05 19:36 | 38.07472 | 15.64927 | 59 ft | 9 kts | 150° |
| 2026-05-05 19:36 | 38.07403 | 15.64974 | 61 ft | 9 kts | 152° |
| 2026-05-05 19:36 | 38.07332 | 15.65024 | 59 ft | 15 kts | 154° |
| 2026-05-05 19:37 | 38.07290 | 15.65102 | 60 ft | 8 kts | 84° |
| 2026-05-05 19:37 | 38.07321 | 15.65174 | 59 ft | 11 kts | 61° |
| 2026-05-05 19:37 | 38.07332 | 15.65242 | 58 ft | 7 kts | 115° |
| 2026-05-05 19:37 | 38.07297 | 15.65291 | 59 ft | 7 kts | 109° |
| 2026-05-05 19:38 | 38.07305 | 15.65313 | 62 ft | 3 kts | 58° |
| 2026-05-05 19:38 | 38.07314 | 15.65330 | 61 ft | 2 kts | 52° |
| 2026-05-05 19:38 | 38.07316 | 15.65333 | 56 ft | 0 kts | 52° |